Terminal Aerodrome Forecast
Issued by NWS

Home | Current Version | Previous Version | Text Only | Print | Product List | Glossary On
Versions: 1 2 3 4 5 6 7 8 9 10 11 12 13 14 15 16 17 18 19 20 21 22 23 24 25 26 27 28 29
000
FTUS43 KDLH 271100
TAFHYR
TAF
KHYR 271130Z 2712/2812 00000KT P6SM SCT030 BKN060
      TEMPO 2712/2713 5SM BR SCT008 BKN060
     FM271500 VRB04KT P6SM SCT040
      TEMPO 2718/2722 BKN045
     FM280000 00000KT P6SM FEW050
     FM280700 00000KT 2SM BR SCT005
      TEMPO 2808/2812 3/4SM BR SCT004=

USA.gov is the U.S. government's official web portal to all federal, state and local government web resources and services.